sensor_id;sensor_type;location;lat;lon;timestamp;temperature;humidity
21047;DHT22;10682;50.874;3.656;2023-03-23T00:01:16;13.10;99.90
21047;DHT22;10682;50.874;3.656;2023-03-23T00:03:48;13.10;99.90
21047;DHT22;10682;50.874;3.656;2023-03-23T00:06:19;13.10;99.90
21047;DHT22;10682;50.874;3.656;2023-03-23T00:08:49;13.00;99.90
21047;DHT22;10682;50.874;3.656;2023-03-23T00:11:24;13.10;99.90
21047;DHT22;10682;50.874;3.656;2023-03-23T00:13:55;13.10;99.90
21047;DHT22;10682;50.874;3.656;2023-03-23T00:16:25;13.00;99.90
21047;DHT22;10682;50.874;3.656;2023-03-23T00:19:09;13.00;99.90
21047;DHT22;10682;50.874;3.656;2023-03-23T00:21:40;13.00;99.90
21047;DHT22;10682;50.874;3.656;2023-03-23T00:24:15;13.00;99.90
21047;DHT22;10682;50.874;3.656;2023-03-23T00:26:45;13.00;99.90
21047;DHT22;10682;50.874;3.656;2023-03-23T00:29:15;13.00;99.90
21047;DHT22;10682;50.874;3.656;2023-03-23T00:31:45;13.00;99.90
21047;DHT22;10682;50.874;3.656;2023-03-23T00:34:19;13.00;99.90
21047;DHT22;10682;50.874;3.656;2023-03-23T00:36:48;13.00;99.90
21047;DHT22;10682;50.874;3.656;2023-03-23T00:39:15;13.00;99.90
21047;DHT22;10682;50.874;3.656;2023-03-23T00:41:46;13.00;99.90
21047;DHT22;10682;50.874;3.656;2023-03-23T00:44:13;13.00;99.90
21047;DHT22;10682;50.874;3.656;2023-03-23T00:46:49;13.00;99.90
21047;DHT22;10682;50.874;3.656;2023-03-23T00:49:20;13.00;99.90
21047;DHT22;10682;50.874;3.656;2023-03-23T00:51:54;13.00;99.90
21047;DHT22;10682;50.874;3.656;2023-03-23T00:54:24;13.00;99.90
21047;DHT22;10682;50.874;3.656;2023-03-23T00:56:51;13.00;99.90
21047;DHT22;10682;50.874;3.656;2023-03-23T00:59:17;13.00;99.90
21047;DHT22;10682;50.874;3.656;2023-03-23T01:01:44;12.90;99.90
21047;DHT22;10682;50.874;3.656;2023-03-23T01:04:14;12.90;99.90
21047;DHT22;10682;50.874;3.656;2023-03-23T01:06:42;12.90;99.90
21047;DHT22;10682;50.874;3.656;2023-03-23T01:09:12;12.90;99.90
21047;DHT22;10682;50.874;3.656;2023-03-23T01:11:46;12.90;99.90
21047;DHT22;10682;50.874;3.656;2023-03-23T01:14:14;12.90;99.90
21047;DHT22;10682;50.874;3.656;2023-03-23T01:16:41;12.90;99.90
21047;DHT22;10682;50.874;3.656;2023-03-23T01:19:08;12.90;99.90
21047;DHT22;10682;50.874;3.656;2023-03-23T01:21:34;13.00;99.90
21047;DHT22;10682;50.874;3.656;2023-03-23T01:24:00;12.90;99.90
21047;DHT22;10682;50.874;3.656;2023-03-23T01:26:27;13.00;99.90
21047;DHT22;10682;50.874;3.656;2023-03-23T01:28:54;13.00;99.90
21047;DHT22;10682;50.874;3.656;2023-03-23T01:31:25;12.90;99.90
21047;DHT22;10682;50.874;3.656;2023-03-23T01:33:52;13.00;99.90
21047;DHT22;10682;50.874;3.656;2023-03-23T01:36:24;13.00;99.90
21047;DHT22;10682;50.874;3.656;2023-03-23T01:38:54;13.00;99.90
21047;DHT22;10682;50.874;3.656;2023-03-23T01:41:22;13.00;99.90
21047;DHT22;10682;50.874;3.656;2023-03-23T01:44:02;13.00;99.90
21047;DHT22;10682;50.874;3.656;2023-03-23T01:46:36;13.00;99.90
21047;DHT22;10682;50.874;3.656;2023-03-23T01:49:07;13.00;99.90
21047;DHT22;10682;50.874;3.656;2023-03-23T01:51:39;13.00;99.90
21047;DHT22;10682;50.874;3.656;2023-03-23T01:54:13;13.10;99.90
21047;DHT22;10682;50.874;3.656;2023-03-23T01:56:45;13.00;99.90
21047;DHT22;10682;50.874;3.656;2023-03-23T01:59:13;13.00;99.90
21047;DHT22;10682;50.874;3.656;2023-03-23T02:01:41;13.00;99.90
21047;DHT22;10682;50.874;3.656;2023-03-23T02:04:11;13.00;99.90
21047;DHT22;10682;50.874;3.656;2023-03-23T02:06:40;13.00;99.90
21047;DHT22;10682;50.874;3.656;2023-03-23T02:09:07;12.90;99.90
21047;DHT22;10682;50.874;3.656;2023-03-23T02:11:33;12.90;99.90
21047;DHT22;10682;50.874;3.656;2023-03-23T02:13:59;12.90;99.90
21047;DHT22;10682;50.874;3.656;2023-03-23T02:26:01;12.90;99.90
21047;DHT22;10682;50.874;3.656;2023-03-23T02:29:07;12.90;99.90
21047;DHT22;10682;50.874;3.656;2023-03-23T02:38:02;12.90;99.90
21047;DHT22;10682;50.874;3.656;2023-03-23T02:40:44;12.90;99.90
21047;DHT22;10682;50.874;3.656;2023-03-23T02:43:15;12.90;99.90
21047;DHT22;10682;50.874;3.656;2023-03-23T02:45:44;12.90;99.90
21047;DHT22;10682;50.874;3.656;2023-03-23T02:48:14;12.90;99.90
21047;DHT22;10682;50.874;3.656;2023-03-23T02:50:44;12.90;99.90
21047;DHT22;10682;50.874;3.656;2023-03-23T02:53:14;12.90;99.90
21047;DHT22;10682;50.874;3.656;2023-03-23T02:55:43;12.90;99.90
21047;DHT22;10682;50.874;3.656;2023-03-23T02:58:10;12.90;99.90
21047;DHT22;10682;50.874;3.656;2023-03-23T03:00:37;12.90;99.90
21047;DHT22;10682;50.874;3.656;2023-03-23T03:03:05;12.90;99.90
21047;DHT22;10682;50.874;3.656;2023-03-23T03:05:42;12.90;99.90
21047;DHT22;10682;50.874;3.656;2023-03-23T03:11:11;12.90;99.90
21047;DHT22;10682;50.874;3.656;2023-03-23T03:14:09;12.90;99.90
21047;DHT22;10682;50.874;3.656;2023-03-23T03:19:50;12.80;99.90
21047;DHT22;10682;50.874;3.656;2023-03-23T03:22:20;12.80;99.90
21047;DHT22;10682;50.874;3.656;2023-03-23T03:24:48;12.80;99.90
21047;DHT22;10682;50.874;3.656;2023-03-23T03:27:17;12.80;99.90
21047;DHT22;10682;50.874;3.656;2023-03-23T03:29:51;12.80;99.90
21047;DHT22;10682;50.874;3.656;2023-03-23T03:32:24;12.80;99.90
21047;DHT22;10682;50.874;3.656;2023-03-23T03:34:59;12.80;99.90
21047;DHT22;10682;50.874;3.656;2023-03-23T03:37:27;12.80;99.90
21047;DHT22;10682;50.874;3.656;2023-03-23T03:39:59;12.80;99.90
21047;DHT22;10682;50.874;3.656;2023-03-23T03:42:25;12.80;99.90
21047;DHT22;10682;50.874;3.656;2023-03-23T03:44:51;12.80;99.90
21047;DHT22;10682;50.874;3.656;2023-03-23T03:47:17;12.80;99.90
21047;DHT22;10682;50.874;3.656;2023-03-23T03:49:43;12.80;99.90
21047;DHT22;10682;50.874;3.656;2023-03-23T03:52:09;12.80;99.90
21047;DHT22;10682;50.874;3.656;2023-03-23T03:54:35;12.80;99.90
21047;DHT22;10682;50.874;3.656;2023-03-23T03:57:01;12.80;99.90
21047;DHT22;10682;50.874;3.656;2023-03-23T03:59:27;12.80;99.90
21047;DHT22;10682;50.874;3.656;2023-03-23T04:01:53;12.80;99.90
21047;DHT22;10682;50.874;3.656;2023-03-23T04:04:20;12.70;99.90
21047;DHT22;10682;50.874;3.656;2023-03-23T04:06:47;12.80;99.90
21047;DHT22;10682;50.874;3.656;2023-03-23T04:09:14;12.70;99.90
21047;DHT22;10682;50.874;3.656;2023-03-23T04:11:40;12.70;99.90
21047;DHT22;10682;50.874;3.656;2023-03-23T04:14:06;12.70;99.90
21047;DHT22;10682;50.874;3.656;2023-03-23T04:16:32;12.70;99.90
21047;DHT22;10682;50.874;3.656;2023-03-23T04:19:00;12.70;99.90
21047;DHT22;10682;50.874;3.656;2023-03-23T04:21:26;12.60;99.90
21047;DHT22;10682;50.874;3.656;2023-03-23T04:23:55;12.60;99.90
21047;DHT22;10682;50.874;3.656;2023-03-23T04:26:26;12.50;99.90
21047;DHT22;10682;50.874;3.656;2023-03-23T04:28:55;12.50;99.90
21047;DHT22;10682;50.874;3.656;2023-03-23T04:31:22;12.50;99.90
21047;DHT22;10682;50.874;3.656;2023-03-23T04:33:51;12.50;99.90
21047;DHT22;10682;50.874;3.656;2023-03-23T04:36:20;12.50;99.90
21047;DHT22;10682;50.874;3.656;2023-03-23T04:38:48;12.50;99.90
21047;DHT22;10682;50.874;3.656;2023-03-23T04:41:16;12.50;99.90
21047;DHT22;10682;50.874;3.656;2023-03-23T04:43:42;12.50;99.90
21047;DHT22;10682;50.874;3.656;2023-03-23T04:46:08;12.50;99.90
21047;DHT22;10682;50.874;3.656;2023-03-23T04:48:35;12.50;99.90
21047;DHT22;10682;50.874;3.656;2023-03-23T04:51:04;12.50;99.90
21047;DHT22;10682;50.874;3.656;2023-03-23T04:53:31;12.50;99.90
21047;DHT22;10682;50.874;3.656;2023-03-23T04:55:57;12.40;99.90
21047;DHT22;10682;50.874;3.656;2023-03-23T04:58:23;12.30;99.90
21047;DHT22;10682;50.874;3.656;2023-03-23T05:00:50;12.30;99.90
21047;DHT22;10682;50.874;3.656;2023-03-23T05:03:17;12.10;99.90
21047;DHT22;10682;50.874;3.656;2023-03-23T05:05:44;12.00;99.90
21047;DHT22;10682;50.874;3.656;2023-03-23T05:08:15;12.00;99.90
21047;DHT22;10682;50.874;3.656;2023-03-23T05:10:42;12.00;99.90
21047;DHT22;10682;50.874;3.656;2023-03-23T05:13:19;12.00;99.90
21047;DHT22;10682;50.874;3.656;2023-03-23T05:15:48;12.00;99.90
21047;DHT22;10682;50.874;3.656;2023-03-23T05:18:15;12.00;99.90
21047;DHT22;10682;50.874;3.656;2023-03-23T05:20:41;12.10;99.90
21047;DHT22;10682;50.874;3.656;2023-03-23T05:23:10;12.10;99.90
21047;DHT22;10682;50.874;3.656;2023-03-23T05:25:38;12.10;99.90
21047;DHT22;10682;50.874;3.656;2023-03-23T05:28:08;12.10;99.90
21047;DHT22;10682;50.874;3.656;2023-03-23T05:30:36;12.20;99.90
21047;DHT22;10682;50.874;3.656;2023-03-23T05:33:04;12.20;99.90
21047;DHT22;10682;50.874;3.656;2023-03-23T05:35:30;12.30;99.90
21047;DHT22;10682;50.874;3.656;2023-03-23T05:37:56;12.20;99.90
21047;DHT22;10682;50.874;3.656;2023-03-23T05:40:23;12.20;99.90
21047;DHT22;10682;50.874;3.656;2023-03-23T05:42:51;12.10;99.90
21047;DHT22;10682;50.874;3.656;2023-03-23T05:45:17;11.40;99.90
21047;DHT22;10682;50.874;3.656;2023-03-23T05:47:44;11.10;99.90
21047;DHT22;10682;50.874;3.656;2023-03-23T05:50:11;10.80;99.90
21047;DHT22;10682;50.874;3.656;2023-03-23T05:52:38;10.50;99.90
21047;DHT22;10682;50.874;3.656;2023-03-23T05:55:06;10.30;99.90
21047;DHT22;10682;50.874;3.656;2023-03-23T05:57:33;10.20;99.90
21047;DHT22;10682;50.874;3.656;2023-03-23T05:59:59;10.10;99.90
21047;DHT22;10682;50.874;3.656;2023-03-23T06:02:25;10.10;99.90
21047;DHT22;10682;50.874;3.656;2023-03-23T06:04:54;10.00;99.90
21047;DHT22;10682;50.874;3.656;2023-03-23T06:07:24;9.90;99.90
21047;DHT22;10682;50.874;3.656;2023-03-23T06:09:51;9.90;99.90
21047;DHT22;10682;50.874;3.656;2023-03-23T06:12:17;9.80;99.90
21047;DHT22;10682;50.874;3.656;2023-03-23T06:14:47;9.80;99.90
21047;DHT22;10682;50.874;3.656;2023-03-23T06:17:15;9.80;99.90
21047;DHT22;10682;50.874;3.656;2023-03-23T06:19:43;9.70;99.90
21047;DHT22;10682;50.874;3.656;2023-03-23T06:22:12;9.70;99.90
21047;DHT22;10682;50.874;3.656;2023-03-23T06:24:39;9.70;99.90
21047;DHT22;10682;50.874;3.656;2023-03-23T06:27:05;9.70;99.90
21047;DHT22;10682;50.874;3.656;2023-03-23T06:29:31;9.80;99.90
21047;DHT22;10682;50.874;3.656;2023-03-23T06:32:00;9.80;99.90
21047;DHT22;10682;50.874;3.656;2023-03-23T06:34:28;9.80;99.90
21047;DHT22;10682;50.874;3.656;2023-03-23T06:36:55;9.80;99.90
21047;DHT22;10682;50.874;3.656;2023-03-23T06:39:22;9.80;99.90
21047;DHT22;10682;50.874;3.656;2023-03-23T06:41:48;9.80;99.90
21047;DHT22;10682;50.874;3.656;2023-03-23T06:44:15;9.90;99.90
21047;DHT22;10682;50.874;3.656;2023-03-23T06:46:41;9.90;99.90
21047;DHT22;10682;50.874;3.656;2023-03-23T06:49:08;9.90;99.90
21047;DHT22;10682;50.874;3.656;2023-03-23T06:51:34;9.90;99.90
21047;DHT22;10682;50.874;3.656;2023-03-23T06:54:00;10.00;99.90
21047;DHT22;10682;50.874;3.656;2023-03-23T06:56:26;10.00;99.90
21047;DHT22;10682;50.874;3.656;2023-03-23T06:58:52;10.00;99.90
21047;DHT22;10682;50.874;3.656;2023-03-23T07:01:18;10.00;99.90
21047;DHT22;10682;50.874;3.656;2023-03-23T07:03:45;10.10;99.90
21047;DHT22;10682;50.874;3.656;2023-03-23T07:06:11;10.10;99.90
21047;DHT22;10682;50.874;3.656;2023-03-23T07:08:37;10.10;99.90
21047;DHT22;10682;50.874;3.656;2023-03-23T07:11:04;10.10;99.90
21047;DHT22;10682;50.874;3.656;2023-03-23T07:13:31;10.20;99.90
21047;DHT22;10682;50.874;3.656;2023-03-23T07:15:57;10.20;99.90
21047;DHT22;10682;50.874;3.656;2023-03-23T07:18:23;10.20;99.90
21047;DHT22;10682;50.874;3.656;2023-03-23T07:20:50;10.20;99.90
21047;DHT22;10682;50.874;3.656;2023-03-23T07:23:18;10.30;99.90
21047;DHT22;10682;50.874;3.656;2023-03-23T07:25:44;10.30;99.90
21047;DHT22;10682;50.874;3.656;2023-03-23T07:28:12;10.30;99.90
21047;DHT22;10682;50.874;3.656;2023-03-23T07:30:38;10.30;99.90
21047;DHT22;10682;50.874;3.656;2023-03-23T07:33:05;10.40;99.90
21047;DHT22;10682;50.874;3.656;2023-03-23T07:35:33;10.40;99.90
21047;DHT22;10682;50.874;3.656;2023-03-23T07:37:59;10.40;99.90
21047;DHT22;10682;50.874;3.656;2023-03-23T07:40:26;10.40;99.90
21047;DHT22;10682;50.874;3.656;2023-03-23T07:42:56;10.40;99.90
21047;DHT22;10682;50.874;3.656;2023-03-23T07:45:23;10.40;99.90
21047;DHT22;10682;50.874;3.656;2023-03-23T07:47:49;10.50;99.90
21047;DHT22;10682;50.874;3.656;2023-03-23T07:50:16;10.50;99.90
21047;DHT22;10682;50.874;3.656;2023-03-23T07:52:43;10.50;99.90
21047;DHT22;10682;50.874;3.656;2023-03-23T07:55:11;10.60;99.90
21047;DHT22;10682;50.874;3.656;2023-03-23T07:57:44;10.50;99.90
21047;DHT22;10682;50.874;3.656;2023-03-23T08:00:11;10.60;99.90
21047;DHT22;10682;50.874;3.656;2023-03-23T08:02:41;10.60;99.90
21047;DHT22;10682;50.874;3.656;2023-03-23T08:05:08;10.70;99.90
21047;DHT22;10682;50.874;3.656;2023-03-23T08:07:34;10.80;99.90
21047;DHT22;10682;50.874;3.656;2023-03-23T08:10:02;10.90;99.90
21047;DHT22;10682;50.874;3.656;2023-03-23T08:12:28;10.80;99.90
21047;DHT22;10682;50.874;3.656;2023-03-23T08:14:54;10.80;99.90
21047;DHT22;10682;50.874;3.656;2023-03-23T08:17:20;10.80;99.90
21047;DHT22;10682;50.874;3.656;2023-03-23T08:19:46;11.00;99.90
21047;DHT22;10682;50.874;3.656;2023-03-23T08:22:12;11.40;99.90
21047;DHT22;10682;50.874;3.656;2023-03-23T08:24:39;11.40;99.90
21047;DHT22;10682;50.874;3.656;2023-03-23T08:27:05;11.40;99.90
21047;DHT22;10682;50.874;3.656;2023-03-23T08:29:32;11.80;99.90
21047;DHT22;10682;50.874;3.656;2023-03-23T08:31:58;12.10;99.90
21047;DHT22;10682;50.874;3.656;2023-03-23T08:34:24;12.50;99.90
21047;DHT22;10682;50.874;3.656;2023-03-23T08:36:51;13.00;99.90
21047;DHT22;10682;50.874;3.656;2023-03-23T08:39:17;13.40;99.90
21047;DHT22;10682;50.874;3.656;2023-03-23T08:41:44;13.40;99.90
21047;DHT22;10682;50.874;3.656;2023-03-23T08:44:11;13.40;99.90
21047;DHT22;10682;50.874;3.656;2023-03-23T08:46:38;13.40;99.90
21047;DHT22;10682;50.874;3.656;2023-03-23T08:49:04;13.20;99.90
21047;DHT22;10682;50.874;3.656;2023-03-23T08:51:32;13.10;99.90
21047;DHT22;10682;50.874;3.656;2023-03-23T08:53:58;12.90;99.90
21047;DHT22;10682;50.874;3.656;2023-03-23T08:56:24;12.90;99.90
21047;DHT22;10682;50.874;3.656;2023-03-23T08:58:50;13.00;99.90
21047;DHT22;10682;50.874;3.656;2023-03-23T09:01:16;13.30;99.90
21047;DHT22;10682;50.874;3.656;2023-03-23T09:03:42;13.30;99.90
21047;DHT22;10682;50.874;3.656;2023-03-23T09:06:09;13.30;99.90
21047;DHT22;10682;50.874;3.656;2023-03-23T09:08:38;13.30;99.90
21047;DHT22;10682;50.874;3.656;2023-03-23T09:11:07;13.50;99.90
21047;DHT22;10682;50.874;3.656;2023-03-23T09:13:36;13.50;99.90
21047;DHT22;10682;50.874;3.656;2023-03-23T09:16:04;13.50;99.90
21047;DHT22;10682;50.874;3.656;2023-03-23T09:18:31;13.70;99.90
21047;DHT22;10682;50.874;3.656;2023-03-23T09:20:59;13.70;99.90
21047;DHT22;10682;50.874;3.656;2023-03-23T09:23:25;13.70;99.90
21047;DHT22;10682;50.874;3.656;2023-03-23T09:25:52;14.00;99.90
21047;DHT22;10682;50.874;3.656;2023-03-23T09:28:19;14.10;99.90
21047;DHT22;10682;50.874;3.656;2023-03-23T09:30:46;14.00;99.90
21047;DHT22;10682;50.874;3.656;2023-03-23T09:33:13;14.10;99.90
21047;DHT22;10682;50.874;3.656;2023-03-23T09:35:40;14.20;99.90
21047;DHT22;10682;50.874;3.656;2023-03-23T09:38:09;14.30;99.90
21047;DHT22;10682;50.874;3.656;2023-03-23T09:49:21;14.10;99.90
21047;DHT22;10682;50.874;3.656;2023-03-23T09:52:13;13.80;99.90
21047;DHT22;10682;50.874;3.656;2023-03-23T09:54:45;13.60;99.90
21047;DHT22;10682;50.874;3.656;2023-03-23T09:57:44;13.50;99.90
21047;DHT22;10682;50.874;3.656;2023-03-23T10:00:21;13.50;99.90
21047;DHT22;10682;50.874;3.656;2023-03-23T10:05:49;13.80;99.90
21047;DHT22;10682;50.874;3.656;2023-03-23T10:08:19;13.80;99.90
21047;DHT22;10682;50.874;3.656;2023-03-23T10:19:32;14.30;99.90
21047;DHT22;10682;50.874;3.656;2023-03-23T10:22:29;14.30;99.90
21047;DHT22;10682;50.874;3.656;2023-03-23T10:25:15;14.50;99.90
21047;DHT22;10682;50.874;3.656;2023-03-23T10:27:53;14.80;99.90
21047;DHT22;10682;50.874;3.656;2023-03-23T10:30:48;14.80;99.90
21047;DHT22;10682;50.874;3.656;2023-03-23T10:39:13;15.60;99.90
21047;DHT22;10682;50.874;3.656;2023-03-23T10:41:43;15.60;99.90
21047;DHT22;10682;50.874;3.656;2023-03-23T10:44:16;15.60;99.90
21047;DHT22;10682;50.874;3.656;2023-03-23T10:47:02;15.00;99.90
21047;DHT22;10682;50.874;3.656;2023-03-23T10:49:43;14.70;99.90
21047;DHT22;10682;50.874;3.656;2023-03-23T10:55:04;14.60;99.90
21047;DHT22;10682;50.874;3.656;2023-03-23T10:57:34;14.80;99.90
21047;DHT22;10682;50.874;3.656;2023-03-23T11:00:17;15.20;99.90
21047;DHT22;10682;50.874;3.656;2023-03-23T11:05:35;15.40;99.90
21047;DHT22;10682;50.874;3.656;2023-03-23T11:08:01;15.50;99.90
21047;DHT22;10682;50.874;3.656;2023-03-23T11:10:39;15.80;99.90
21047;DHT22;10682;50.874;3.656;2023-03-23T11:13:13;16.00;99.90
21047;DHT22;10682;50.874;3.656;2023-03-23T11:15:42;16.40;99.90
21047;DHT22;10682;50.874;3.656;2023-03-23T11:18:21;16.60;99.90
21047;DHT22;10682;50.874;3.656;2023-03-23T11:21:12;16.90;99.90
21047;DHT22;10682;50.874;3.656;2023-03-23T11:23:41;17.10;99.90
21047;DHT22;10682;50.874;3.656;2023-03-23T11:26:15;17.00;99.90
21047;DHT22;10682;50.874;3.656;2023-03-23T11:31:33;16.60;99.90
21047;DHT22;10682;50.874;3.656;2023-03-23T11:37:39;16.90;99.90
21047;DHT22;10682;50.874;3.656;2023-03-23T11:42:42;16.70;99.90
21047;DHT22;10682;50.874;3.656;2023-03-23T11:45:26;16.70;99.90
21047;DHT22;10682;50.874;3.656;2023-03-23T11:48:28;16.80;99.90
21047;DHT22;10682;50.874;3.656;2023-03-23T11:51:16;17.00;99.90
21047;DHT22;10682;50.874;3.656;2023-03-23T11:56:39;17.10;99.90
21047;DHT22;10682;50.874;3.656;2023-03-23T11:59:26;17.00;99.90
21047;DHT22;10682;50.874;3.656;2023-03-23T12:08:30;17.00;99.90
21047;DHT22;10682;50.874;3.656;2023-03-23T12:14:31;17.10;99.90
21047;DHT22;10682;50.874;3.656;2023-03-23T12:20:08;16.40;99.90
21047;DHT22;10682;50.874;3.656;2023-03-23T12:22:54;16.70;99.90
21047;DHT22;10682;50.874;3.656;2023-03-23T12:28:21;17.00;99.90
21047;DHT22;10682;50.874;3.656;2023-03-23T12:31:07;17.30;99.90
21047;DHT22;10682;50.874;3.656;2023-03-23T12:34:17;17.20;99.90
21047;DHT22;10682;50.874;3.656;2023-03-23T12:52:19;15.70;99.90
21047;DHT22;10682;50.874;3.656;2023-03-23T13:00:23;15.70;99.90
21047;DHT22;10682;50.874;3.656;2023-03-23T13:03:46;16.00;99.90
21047;DHT22;10682;50.874;3.656;2023-03-23T13:06:36;16.60;99.90
21047;DHT22;10682;50.874;3.656;2023-03-23T13:11:55;16.90;99.90
21047;DHT22;10682;50.874;3.656;2023-03-23T13:14:34;16.90;99.90
21047;DHT22;10682;50.874;3.656;2023-03-23T13:20:29;16.60;99.90
21047;DHT22;10682;50.874;3.656;2023-03-23T13:23:04;16.20;99.90
21047;DHT22;10682;50.874;3.656;2023-03-23T13:26:02;15.90;99.90
21047;DHT22;10682;50.874;3.656;2023-03-23T13:28:34;15.80;99.90
21047;DHT22;10682;50.874;3.656;2023-03-23T13:31:22;15.70;99.90
21047;DHT22;10682;50.874;3.656;2023-03-23T13:34:17;15.60;99.90
21047;DHT22;10682;50.874;3.656;2023-03-23T13:39:27;15.30;99.90
21047;DHT22;10682;50.874;3.656;2023-03-23T13:52:49;15.90;99.90
21047;DHT22;10682;50.874;3.656;2023-03-23T14:03:26;14.80;99.90
21047;DHT22;10682;50.874;3.656;2023-03-23T14:06:02;14.50;99.90
21047;DHT22;10682;50.874;3.656;2023-03-23T14:10:58;14.40;99.90
21047;DHT22;10682;50.874;3.656;2023-03-23T14:16:18;14.40;99.90
21047;DHT22;10682;50.874;3.656;2023-03-23T14:18:53;14.50;99.90
21047;DHT22;10682;50.874;3.656;2023-03-23T14:21:39;14.50;99.90
21047;DHT22;10682;50.874;3.656;2023-03-23T14:24:12;14.60;99.90
21047;DHT22;10682;50.874;3.656;2023-03-23T14:26:41;14.70;99.90
21047;DHT22;10682;50.874;3.656;2023-03-23T14:29:11;14.70;99.90
21047;DHT22;10682;50.874;3.656;2023-03-23T14:31:39;14.70;99.90
21047;DHT22;10682;50.874;3.656;2023-03-23T14:34:19;14.70;99.90
21047;DHT22;10682;50.874;3.656;2023-03-23T14:36:46;14.70;99.90
21047;DHT22;10682;50.874;3.656;2023-03-23T14:41:47;15.00;99.90
21047;DHT22;10682;50.874;3.656;2023-03-23T14:44:24;15.20;99.90
21047;DHT22;10682;50.874;3.656;2023-03-23T14:46:53;15.30;99.90
21047;DHT22;10682;50.874;3.656;2023-03-23T14:49:28;15.20;99.90
21047;DHT22;10682;50.874;3.656;2023-03-23T14:52:09;15.30;99.90
21047;DHT22;10682;50.874;3.656;2023-03-23T14:54:37;15.30;99.90
21047;DHT22;10682;50.874;3.656;2023-03-23T14:57:14;15.30;99.90
21047;DHT22;10682;50.874;3.656;2023-03-23T14:59:46;15.40;99.90
21047;DHT22;10682;50.874;3.656;2023-03-23T15:05:34;15.50;99.90
21047;DHT22;10682;50.874;3.656;2023-03-23T15:08:25;15.50;99.90
21047;DHT22;10682;50.874;3.656;2023-03-23T15:13:41;15.70;99.90
21047;DHT22;10682;50.874;3.656;2023-03-23T15:16:34;15.60;99.90
21047;DHT22;10682;50.874;3.656;2023-03-23T15:19:01;15.70;99.90
21047;DHT22;10682;50.874;3.656;2023-03-23T15:21:33;15.70;99.90
21047;DHT22;10682;50.874;3.656;2023-03-23T15:24:02;15.60;99.90
21047;DHT22;10682;50.874;3.656;2023-03-23T15:26:43;15.60;99.90
21047;DHT22;10682;50.874;3.656;2023-03-23T15:29:18;15.50;99.90
21047;DHT22;10682;50.874;3.656;2023-03-23T15:31:53;15.40;99.90
21047;DHT22;10682;50.874;3.656;2023-03-23T15:34:25;15.20;99.90
21047;DHT22;10682;50.874;3.656;2023-03-23T15:36:59;14.80;99.90
21047;DHT22;10682;50.874;3.656;2023-03-23T15:39:27;14.60;99.90
21047;DHT22;10682;50.874;3.656;2023-03-23T15:41:54;14.40;99.90
21047;DHT22;10682;50.874;3.656;2023-03-23T15:44:30;14.40;99.90
21047;DHT22;10682;50.874;3.656;2023-03-23T15:47:16;14.50;99.90
21047;DHT22;10682;50.874;3.656;2023-03-23T15:50:01;14.60;99.90
21047;DHT22;10682;50.874;3.656;2023-03-23T15:52:38;14.70;99.90
21047;DHT22;10682;50.874;3.656;2023-03-23T15:55:23;14.90;99.90
21047;DHT22;10682;50.874;3.656;2023-03-23T15:57:57;14.90;99.90
21047;DHT22;10682;50.874;3.656;2023-03-23T16:00:25;14.90;99.90
21047;DHT22;10682;50.874;3.656;2023-03-23T16:03:00;15.00;99.90
21047;DHT22;10682;50.874;3.656;2023-03-23T16:05:28;15.10;99.90
21047;DHT22;10682;50.874;3.656;2023-03-23T16:07:56;15.30;99.90
21047;DHT22;10682;50.874;3.656;2023-03-23T16:10:24;15.40;99.90
21047;DHT22;10682;50.874;3.656;2023-03-23T16:12:52;15.40;99.90
21047;DHT22;10682;50.874;3.656;2023-03-23T16:15:19;15.30;99.90
21047;DHT22;10682;50.874;3.656;2023-03-23T16:17:47;15.20;99.90
21047;DHT22;10682;50.874;3.656;2023-03-23T16:20:16;15.10;99.90
21047;DHT22;10682;50.874;3.656;2023-03-23T16:22:45;15.00;99.90
21047;DHT22;10682;50.874;3.656;2023-03-23T16:25:14;15.00;99.90
21047;DHT22;10682;50.874;3.656;2023-03-23T16:27:42;15.00;99.90
21047;DHT22;10682;50.874;3.656;2023-03-23T16:30:15;15.00;99.90
21047;DHT22;10682;50.874;3.656;2023-03-23T16:32:44;14.90;99.90
21047;DHT22;10682;50.874;3.656;2023-03-23T16:35:13;14.90;99.90
21047;DHT22;10682;50.874;3.656;2023-03-23T16:37:46;14.90;99.90
21047;DHT22;10682;50.874;3.656;2023-03-23T16:40:35;14.90;99.90
21047;DHT22;10682;50.874;3.656;2023-03-23T16:43:02;14.90;99.90
21047;DHT22;10682;50.874;3.656;2023-03-23T16:45:36;15.00;99.90
21047;DHT22;10682;50.874;3.656;2023-03-23T16:48:04;15.00;99.90
21047;DHT22;10682;50.874;3.656;2023-03-23T16:50:34;15.00;99.90
21047;DHT22;10682;50.874;3.656;2023-03-23T16:53:03;15.00;99.90
21047;DHT22;10682;50.874;3.656;2023-03-23T16:55:31;15.00;99.90
21047;DHT22;10682;50.874;3.656;2023-03-23T16:57:58;14.90;99.90
21047;DHT22;10682;50.874;3.656;2023-03-23T17:00:43;14.90;99.90
21047;DHT22;10682;50.874;3.656;2023-03-23T17:03:15;15.00;99.90
21047;DHT22;10682;50.874;3.656;2023-03-23T17:05:46;15.00;99.90
21047;DHT22;10682;50.874;3.656;2023-03-23T17:08:14;15.00;99.90
21047;DHT22;10682;50.874;3.656;2023-03-23T17:10:41;15.00;99.90
21047;DHT22;10682;50.874;3.656;2023-03-23T17:13:09;15.00;99.90
21047;DHT22;10682;50.874;3.656;2023-03-23T17:15:38;15.00;99.90
21047;DHT22;10682;50.874;3.656;2023-03-23T17:18:08;15.00;99.90
21047;DHT22;10682;50.874;3.656;2023-03-23T17:20:35;15.10;99.90
21047;DHT22;10682;50.874;3.656;2023-03-23T17:23:03;15.10;99.90
21047;DHT22;10682;50.874;3.656;2023-03-23T17:25:31;15.00;99.90
21047;DHT22;10682;50.874;3.656;2023-03-23T17:27:59;15.00;99.90
21047;DHT22;10682;50.874;3.656;2023-03-23T17:30:33;15.00;99.90
21047;DHT22;10682;50.874;3.656;2023-03-23T17:33:01;15.00;99.90
21047;DHT22;10682;50.874;3.656;2023-03-23T17:35:28;15.00;99.90
21047;DHT22;10682;50.874;3.656;2023-03-23T17:37:55;15.00;99.90
21047;DHT22;10682;50.874;3.656;2023-03-23T17:40:22;15.10;99.90
21047;DHT22;10682;50.874;3.656;2023-03-23T17:42:49;15.10;99.90
21047;DHT22;10682;50.874;3.656;2023-03-23T17:45:16;15.10;99.90
21047;DHT22;10682;50.874;3.656;2023-03-23T17:47:43;15.10;99.90
21047;DHT22;10682;50.874;3.656;2023-03-23T17:50:11;15.10;99.90
21047;DHT22;10682;50.874;3.656;2023-03-23T17:52:39;15.10;99.90
21047;DHT22;10682;50.874;3.656;2023-03-23T17:55:07;15.00;99.90
21047;DHT22;10682;50.874;3.656;2023-03-23T17:57:34;15.00;99.90
21047;DHT22;10682;50.874;3.656;2023-03-23T18:00:03;14.90;99.90
21047;DHT22;10682;50.874;3.656;2023-03-23T18:02:34;14.80;99.90
21047;DHT22;10682;50.874;3.656;2023-03-23T18:05:02;14.70;99.90
21047;DHT22;10682;50.874;3.656;2023-03-23T18:07:29;14.60;99.90
21047;DHT22;10682;50.874;3.656;2023-03-23T18:09:58;14.50;99.90
21047;DHT22;10682;50.874;3.656;2023-03-23T18:12:26;14.40;99.90
21047;DHT22;10682;50.874;3.656;2023-03-23T18:14:57;14.40;99.90
21047;DHT22;10682;50.874;3.656;2023-03-23T18:17:25;14.40;99.90
21047;DHT22;10682;50.874;3.656;2023-03-23T18:19:52;14.30;99.90